SBRB Informação do Aeroporto

Informação da Pista
Runway 6 Length 7080 ft width 148 ft
Elevation 0 ft Threshold 0 ft Heading 0
Runway 24 Length 7080 ft Width 148 ft
Elevation 0 ft Threshold 0 ft Heading 0
Frequencias do Aeroporto
Tipo APP Nome RIO BRANCO Frequência 119.9 MHZ
Tipo TWR Nome RIO BRANCO Frequência 118.7 MHZ
Navaids Aeroporto
Tipo VOR-DME Name Branco Frequência 114200 KHZ
Tipo NDB Name Branco Frequência 355 KHZ
Tempo do Aeroporto & NOTAM
ADDS - METARS form results

(2328 UTC 03 April 2020)
Data provider http://aviationweather.gov/metar/data/
 
METAR text: SBRB 032316Z 03009KT 2000 RA BKN008 SCT020 FEW030TCU 23/23 Q1011
Conditions at: SBRB (RIO BRANCO/MEDIC, BR) observed 2316 UTC 03 April 2020
Temperature: 23.0°C (73°F)
Dewpoint: 23.0°C (73°F) [RH = 100%]
Pressure (altimeter): 29.85 inches Hg (1011.0 mb)
Winds: from the NNE (30 degrees) at 10 MPH (9 knots; 4.6 m/s)
Visibility: 1.24 miles (2.00 km)
Ceiling: 800 feet AGL
Clouds: broken clouds at 800 feet AGL
scattered clouds at 2000 feet AGL
few clouds at 3000 feet AGL
Weather: RA  (moderate rain)

METAR text: SBRB 032300Z 05008G19KT 9999 VCSH BKN008 SCT020 FEW030TCU 26/25 Q1011
Conditions at: SBRB (RIO BRANCO/MEDIC, BR) observed 2300 UTC 03 April 2020
Temperature: 26.0°C (79°F)
Dewpoint: 25.0°C (77°F) [RH = 94%]
Pressure (altimeter): 29.85 inches Hg (1011.0 mb)
Winds: from the NE (50 degrees) at 9 MPH (8 knots; 4.1 m/s)
gusting to 22 MPH (19 knots; 9.8 m/s)
Visibility: 6 or more miles (10+ km)
Ceiling: 800 feet AGL
Clouds: broken clouds at 800 feet AGL
scattered clouds at 2000 feet AGL
few clouds at 3000 feet AGL
Weather: VCSH  (showers in vicinity)

Forecast for: SBRB (RIO BRANCO/MEDIC, BR)
Text: TAF SBRB 032100Z 0400/0412 22005KT 9999 SCT025 TN23/0409Z TX25/0412Z
Forecast period: 0000 to 0200 UTC 04 April 2020
Forecast type: FROM: standard forecast or significant change
Winds: from the SW (220 degrees) at 6 MPH (5 knots; 2.6 m/s)
Visibility: 6 or more miles 10+ km)
Ceiling: at least 12,000 feet AGL
Clouds: scattered clouds at 2500 feet AGL
Weather: no significant weather forecast for this period
Text: BECMG 0402/0404 36005KT SCT040
Forecast period: 0200 to 0800 UTC 04 April 2020
Forecast type: BECOMING: Conditions expected to become as follows by 0400 UTC 04 April 2020
Winds: from the N (360 degrees) at 6 MPH (5 knots; 2.6 m/s)
Visibility: 6 or more miles 10+ km)
Ceiling: at least 12,000 feet AGL
Clouds: scattered clouds at 4000 feet AGL
Weather: no significant weather forecast for this period
Text: BECMG 0408/0410 22005KT 6000 SCT010 RMK PGB
Forecast period: 0800 to 1200 UTC 04 April 2020
Forecast type: BECOMING: Conditions expected to become as follows by 1000 UTC 04 April 2020
Winds: from the SW (220 degrees) at 6 MPH (5 knots; 2.6 m/s)
Visibility: 4 miles (6 km)
Ceiling: at least 12,000 feet AGL
Clouds: scattered clouds at 1000 feet AGL
Weather: no significant weather forecast for this period